createdAt,value
2023-03-17T00:00:54.117Z,3.10
2023-03-17T00:03:27.094Z,3.12
2023-03-17T00:06:00.126Z,3.52
2023-03-17T00:08:36.673Z,3.40
2023-03-17T00:11:10.293Z,2.77
2023-03-17T00:13:40.754Z,3.10
2023-03-17T00:16:16.255Z,3.20
2023-03-17T00:18:46.635Z,3.02
2023-03-17T00:21:19.826Z,2.95
2023-03-17T00:23:51.978Z,2.92
2023-03-17T00:26:21.393Z,3.00
2023-03-17T00:28:53.444Z,3.10
2023-03-17T00:31:28.091Z,3.40
2023-03-17T00:33:59.965Z,2.67
2023-03-17T00:36:32.292Z,2.50
2023-03-17T00:39:03.989Z,2.45
2023-03-17T00:41:34.202Z,3.10
2023-03-17T00:44:03.643Z,3.40
2023-03-17T00:46:38.802Z,2.67
2023-03-17T00:49:21.532Z,2.30
2023-03-17T00:51:52.623Z,2.72
2023-03-17T00:54:24.328Z,2.90
2023-03-17T00:56:53.996Z,2.52
2023-03-17T00:59:26.504Z,3.00
2023-03-17T01:01:56.913Z,3.35
2023-03-17T01:04:26.748Z,3.37
2023-03-17T01:06:56.211Z,2.47
2023-03-17T01:09:28.468Z,2.47
2023-03-17T01:11:59.738Z,2.75
2023-03-17T01:14:29.949Z,2.92
2023-03-17T01:17:02.362Z,2.60
2023-03-17T01:19:32.870Z,3.70
2023-03-17T01:22:03.928Z,2.60
2023-03-17T01:24:33.469Z,2.30
2023-03-17T01:27:05.134Z,3.10
2023-03-17T01:29:36.173Z,2.52
2023-03-17T01:32:06.709Z,3.52
2023-03-17T01:34:36.210Z,2.35
2023-03-17T01:37:05.708Z,1.92
2023-03-17T01:39:35.513Z,3.20
2023-03-17T01:42:06.294Z,2.40
2023-03-17T01:44:35.768Z,3.72
2023-03-17T01:47:05.261Z,2.67
2023-03-17T01:49:38.352Z,2.87
2023-03-17T01:52:14.379Z,2.58
2023-03-17T01:54:59.569Z,2.08
2023-03-17T01:57:32.080Z,3.10
2023-03-17T02:00:08.485Z,2.40
2023-03-17T02:02:46.894Z,2.87
2023-03-17T02:05:20.102Z,2.30
2023-03-17T02:07:49.678Z,2.90
2023-03-17T02:10:21.844Z,2.47
2023-03-17T02:12:55.680Z,2.42
2023-03-17T02:15:28.340Z,2.50
2023-03-17T02:17:57.845Z,2.72
2023-03-17T02:20:31.984Z,2.67
2023-03-17T02:23:04.327Z,2.35
2023-03-17T02:25:37.802Z,2.40
2023-03-17T02:28:10.315Z,2.20
2023-03-17T02:30:39.972Z,2.67
2023-03-17T02:33:10.206Z,2.98
2023-03-17T02:35:41.132Z,2.52
2023-03-17T02:38:10.892Z,2.25
2023-03-17T02:40:40.662Z,2.87
2023-03-17T02:43:10.844Z,2.20
2023-03-17T02:45:40.265Z,2.20
2023-03-17T02:48:09.776Z,2.83
2023-03-17T02:50:39.437Z,2.17
2023-03-17T02:53:09.812Z,3.05
2023-03-17T02:55:39.385Z,2.50
2023-03-17T02:58:10.168Z,2.52
2023-03-17T03:00:40.959Z,2.55
2023-03-17T03:03:10.766Z,3.65
2023-03-17T03:05:40.188Z,2.33
2023-03-17T03:08:10.593Z,2.72
2023-03-17T03:10:40.020Z,2.25
2023-03-17T03:13:09.523Z,2.42
2023-03-17T03:15:40.525Z,3.30
2023-03-17T03:18:10.078Z,2.70
2023-03-17T03:20:41.652Z,2.12
2023-03-17T03:25:40.807Z,2.83
2023-03-17T03:28:10.841Z,2.60
2023-03-17T03:30:41.206Z,2.50
2023-03-17T03:33:13.164Z,2.87
2023-03-17T03:35:43.648Z,2.30
2023-03-17T03:38:14.034Z,2.27
2023-03-17T03:40:44.228Z,3.08
2023-03-17T03:43:22.845Z,2.77
2023-03-17T03:45:46.178Z,3.00
2023-03-17T03:48:16.352Z,2.52
2023-03-17T03:50:45.853Z,3.70
2023-03-17T03:53:15.851Z,2.33
2023-03-17T03:55:45.756Z,2.02
2023-03-17T03:58:15.638Z,2.37
2023-03-17T04:00:48.457Z,2.70
2023-03-17T04:05:47.211Z,2.77
2023-03-17T04:08:16.644Z,2.98
2023-03-17T04:10:46.120Z,2.92
2023-03-17T04:13:15.613Z,2.53
2023-03-17T04:15:45.044Z,2.62
2023-03-17T04:18:14.592Z,2.95
2023-03-17T04:20:45.435Z,2.80
2023-03-17T04:23:15.294Z,2.65
2023-03-17T04:25:44.997Z,3.40
2023-03-17T04:28:14.427Z,2.70
2023-03-17T04:30:44.316Z,2.85
2023-03-17T04:33:15.342Z,2.95
2023-03-17T04:35:45.162Z,2.25
2023-03-17T04:38:14.818Z,2.83
2023-03-17T04:40:44.322Z,2.25
2023-03-17T04:43:13.971Z,1.83
2023-03-17T04:45:43.401Z,2.60
2023-03-17T04:48:13.413Z,3.12
2023-03-17T04:50:43.223Z,3.10
2023-03-17T04:53:12.739Z,2.20
2023-03-17T04:55:42.294Z,2.77
2023-03-17T04:58:15.651Z,3.08
2023-03-17T05:00:42.957Z,3.17
2023-03-17T05:03:26.039Z,2.55
2023-03-17T05:05:43.757Z,2.83
2023-03-17T05:08:13.273Z,2.72
2023-03-17T05:10:42.714Z,1.92
2023-03-17T05:13:14.090Z,3.25
2023-03-17T05:15:48.264Z,3.20
2023-03-17T05:18:19.480Z,2.80
2023-03-17T05:20:49.444Z,2.12
2023-03-17T05:23:19.412Z,2.30
2023-03-17T05:25:49.442Z,3.42
2023-03-17T05:28:21.088Z,2.53
2023-03-17T05:30:50.841Z,2.10
2023-03-17T05:33:22.315Z,3.25
2023-03-17T05:35:52.451Z,2.70
2023-03-17T05:38:22.738Z,2.40
2023-03-17T05:40:52.875Z,2.92
2023-03-17T05:43:23.025Z,2.60
2023-03-17T05:45:53.146Z,2.12
2023-03-17T05:48:22.957Z,3.20
2023-03-17T05:50:52.393Z,3.33
2023-03-17T05:53:23.144Z,3.15
2023-03-17T05:55:53.132Z,2.98
2023-03-17T05:58:22.638Z,3.17
2023-03-17T06:00:52.202Z,2.62
2023-03-17T06:03:23.193Z,1.90
2023-03-17T06:05:53.299Z,3.08
2023-03-17T06:08:22.807Z,3.17
2023-03-17T06:10:52.314Z,2.20
2023-03-17T06:13:21.794Z,3.03
2023-03-17T06:15:52.745Z,2.58
2023-03-17T06:18:22.767Z,2.42
2023-03-17T06:20:52.623Z,3.55
2023-03-17T06:23:23.931Z,2.73
2023-03-17T06:25:53.404Z,2.45
2023-03-17T06:28:23.130Z,2.33
2023-03-17T06:30:59.769Z,2.80
2023-03-17T06:33:30.060Z,1.25
2023-03-17T06:36:01.286Z,2.67
2023-03-17T06:38:30.810Z,2.45
2023-03-17T06:41:00.282Z,2.02
2023-03-17T06:43:29.802Z,2.13
2023-03-17T06:45:59.606Z,2.85
2023-03-17T06:48:29.382Z,3.10
2023-03-17T06:50:58.800Z,2.77
2023-03-17T06:53:28.363Z,2.92
2023-03-17T06:55:58.137Z,2.35
2023-03-17T06:58:27.574Z,2.87
2023-03-17T07:00:57.554Z,2.50
2023-03-17T07:03:28.447Z,2.90
2023-03-17T07:06:00.132Z,3.15
2023-03-17T07:08:31.216Z,2.80
2023-03-17T07:11:00.826Z,2.65
2023-03-17T07:13:32.731Z,2.47
2023-03-17T07:16:03.167Z,2.62
2023-03-17T07:18:34.812Z,2.10
2023-03-17T07:21:04.777Z,3.40
2023-03-17T07:23:34.943Z,3.00
2023-03-17T07:26:04.356Z,3.25
2023-03-17T07:28:34.127Z,2.83
2023-03-17T07:31:05.480Z,2.20
2023-03-17T07:33:35.050Z,2.98
2023-03-17T07:36:06.446Z,2.30
2023-03-17T07:38:37.226Z,2.30
2023-03-17T07:41:08.552Z,2.20
2023-03-17T07:43:39.241Z,2.17
2023-03-17T07:46:09.057Z,2.50
2023-03-17T07:48:40.166Z,2.65
2023-03-17T07:51:12.762Z,2.58
2023-03-17T07:53:42.952Z,2.65
2023-03-17T07:56:13.335Z,2.12
2023-03-17T07:58:42.937Z,2.33
2023-03-17T08:01:12.451Z,2.25
2023-03-17T08:03:43.134Z,2.83
2023-03-17T08:06:12.560Z,2.37
2023-03-17T08:08:41.991Z,1.98
2023-03-17T08:11:12.098Z,2.10
2023-03-17T08:13:41.638Z,2.20
2023-03-17T08:16:11.258Z,2.17
2023-03-17T08:18:41.360Z,2.37
2023-03-17T08:21:11.335Z,2.55
2023-03-17T08:23:40.811Z,2.77
2023-03-17T08:26:11.954Z,2.27
2023-03-17T08:28:43.115Z,2.15
2023-03-17T08:31:17.165Z,1.77
2023-03-17T08:33:52.485Z,2.65
2023-03-17T08:36:25.090Z,2.10
2023-03-17T08:38:55.449Z,2.42
2023-03-17T08:41:28.305Z,2.77
2023-03-17T08:43:58.285Z,2.55
2023-03-17T08:46:31.790Z,3.12
2023-03-17T08:49:02.127Z,2.50
2023-03-17T08:51:35.215Z,2.15
2023-03-17T08:56:35.434Z,2.75
2023-03-17T08:59:07.228Z,2.45
2023-03-17T09:01:38.376Z,2.30
2023-03-17T09:04:09.027Z,2.83
2023-03-17T09:06:44.045Z,2.60
2023-03-17T09:09:10.964Z,3.40
2023-03-17T09:11:40.606Z,1.95
2023-03-17T09:14:10.104Z,2.47
2023-03-17T09:16:41.322Z,2.67
2023-03-17T09:19:11.022Z,2.30
2023-03-17T09:21:42.086Z,2.85
2023-03-17T09:24:11.761Z,1.95
2023-03-17T09:26:43.196Z,2.75
2023-03-17T09:29:13.672Z,2.77
2023-03-17T09:31:43.185Z,2.10
2023-03-17T09:34:12.830Z,2.37
2023-03-17T09:36:43.730Z,2.22
2023-03-17T09:39:13.187Z,3.08
2023-03-17T09:41:57.800Z,2.30
2023-03-17T09:44:34.346Z,2.87
2023-03-17T09:47:19.514Z,2.75
2023-03-17T09:49:58.880Z,2.05
2023-03-17T09:52:35.152Z,2.57
2023-03-17T09:55:10.149Z,2.02
2023-03-17T09:57:43.910Z,2.37
2023-03-17T10:00:23.742Z,2.42
2023-03-17T10:02:53.660Z,1.87
2023-03-17T10:05:27.077Z,2.98
2023-03-17T10:08:06.317Z,3.35
2023-03-17T10:10:44.771Z,2.60
2023-03-17T10:13:38.482Z,3.55
2023-03-17T10:16:11.116Z,2.95
2023-03-17T10:18:46.633Z,2.87
2023-03-17T10:21:19.443Z,2.60
2023-03-17T10:23:49.208Z,2.98
2023-03-17T10:26:31.228Z,2.10
2023-03-17T10:29:05.108Z,2.47
2023-03-17T10:31:37.571Z,3.20
2023-03-17T10:34:16.151Z,3.20
2023-03-17T10:37:03.293Z,2.42
2023-03-17T10:39:33.264Z,2.72
2023-03-17T10:42:11.760Z,2.40
2023-03-17T10:44:47.440Z,2.60
2023-03-17T10:47:25.945Z,2.52
2023-03-17T10:49:58.296Z,2.43
2023-03-17T10:52:31.189Z,2.27
2023-03-17T10:55:09.126Z,2.20
2023-03-17T10:57:41.535Z,2.60
2023-03-17T11:00:18.993Z,2.35
2023-03-17T11:02:58.110Z,2.60
2023-03-17T11:05:30.045Z,2.62
2023-03-17T11:08:08.695Z,2.58
2023-03-17T11:10:42.134Z,2.45
2023-03-17T11:13:19.594Z,2.15
2023-03-17T11:15:54.606Z,2.12
2023-03-17T11:18:38.551Z,2.30
2023-03-17T11:21:13.816Z,2.65
2023-03-17T11:23:49.524Z,2.12
2023-03-17T11:26:45.436Z,2.80
2023-03-17T11:29:52.806Z,2.35
2023-03-17T11:32:29.837Z,3.02
2023-03-17T11:35:03.145Z,2.57
2023-03-17T11:40:34.110Z,2.62
2023-03-17T11:43:15.027Z,2.30
2023-03-17T11:45:53.801Z,2.50
2023-03-17T11:48:49.184Z,3.05
2023-03-17T11:51:26.031Z,2.58
2023-03-17T11:54:13.948Z,2.37
2023-03-17T11:56:49.089Z,2.67
2023-03-17T11:59:30.289Z,2.67
2023-03-17T12:02:19.484Z,2.45
2023-03-17T12:05:01.144Z,2.50
2023-03-17T12:07:38.270Z,2.65
2023-03-17T12:10:11.084Z,2.05
2023-03-17T12:12:44.313Z,1.72
2023-03-17T12:15:21.155Z,2.65
2023-03-17T12:17:53.722Z,3.10
2023-03-17T12:20:31.928Z,2.80
2023-03-17T12:23:13.733Z,2.90
2023-03-17T12:25:46.199Z,2.52
2023-03-17T12:30:55.941Z,2.45
2023-03-17T12:33:31.311Z,2.93
2023-03-17T12:36:03.856Z,2.47
2023-03-17T12:38:39.620Z,2.65
2023-03-17T12:41:31.725Z,2.90
2023-03-17T12:44:10.399Z,3.40
2023-03-17T12:47:02.230Z,2.35
2023-03-17T12:50:01.106Z,2.55
2023-03-17T12:52:38.323Z,2.37
2023-03-17T12:55:11.342Z,3.15
2023-03-17T13:00:29.819Z,3.22
2023-03-17T13:03:24.719Z,2.50
2023-03-17T13:05:57.538Z,3.00
2023-03-17T13:08:32.937Z,1.62
2023-03-17T13:11:38.922Z,2.40
2023-03-17T13:14:27.051Z,2.72
2023-03-17T13:17:24.530Z,2.80
2023-03-17T13:20:11.829Z,2.60
2023-03-17T13:23:14.720Z,2.85
2023-03-17T13:25:55.482Z,2.87
2023-03-17T13:28:28.795Z,2.52
2023-03-17T13:31:16.658Z,2.67
2023-03-17T13:33:51.850Z,2.58
2023-03-17T13:36:24.840Z,2.10
2023-03-17T13:39:17.709Z,3.08
2023-03-17T13:41:50.432Z,2.75
2023-03-17T13:44:48.232Z,2.60
2023-03-17T13:47:36.079Z,2.47
2023-03-17T13:50:17.543Z,2.05
2023-03-17T13:52:58.365Z,2.67
2023-03-17T13:55:35.461Z,2.27
2023-03-17T13:58:12.188Z,2.83
2023-03-17T14:00:50.878Z,2.47
2023-03-17T14:03:51.292Z,2.20
2023-03-17T14:06:24.090Z,2.10
2023-03-17T14:11:29.691Z,2.70
2023-03-17T14:14:32.541Z,2.55
2023-03-17T14:16:57.372Z,3.20
2023-03-17T14:19:29.713Z,2.02
2023-03-17T14:22:08.164Z,2.47
2023-03-17T14:24:37.590Z,2.92
2023-03-17T14:27:10.044Z,2.52
2023-03-17T14:32:20.305Z,2.80
2023-03-17T14:34:58.371Z,2.85
2023-03-17T14:37:30.176Z,3.17
2023-03-17T14:40:00.250Z,2.92
2023-03-17T14:42:33.918Z,2.60
2023-03-17T14:45:06.677Z,3.08
2023-03-17T14:47:43.838Z,3.50
2023-03-17T14:50:28.421Z,5.72
2023-03-17T14:53:00.856Z,4.15
2023-03-17T14:55:36.446Z,6.25
2023-03-17T14:58:23.504Z,6.75
2023-03-17T15:01:08.181Z,2.95
2023-03-17T15:03:43.047Z,2.75
2023-03-17T15:06:27.488Z,2.50
2023-03-17T15:09:00.463Z,2.37
2023-03-17T15:11:38.706Z,2.98
2023-03-17T15:14:19.950Z,3.47
2023-03-17T15:16:55.790Z,3.07
2023-03-17T15:19:41.404Z,3.10
2023-03-17T15:22:32.122Z,3.37
2023-03-17T15:25:10.137Z,2.40
2023-03-17T15:27:39.548Z,2.92
2023-03-17T15:30:14.152Z,2.60
2023-03-17T15:32:44.616Z,3.05
2023-03-17T15:35:15.244Z,3.03
2023-03-17T15:37:44.678Z,3.20
2023-03-17T15:40:16.226Z,2.87
2023-03-17T15:42:45.732Z,2.43
2023-03-17T15:45:19.168Z,2.90
2023-03-17T15:47:48.732Z,3.33
2023-03-17T15:50:24.988Z,3.24
2023-03-17T15:52:56.177Z,3.10
2023-03-17T15:55:31.597Z,3.67
2023-03-17T15:58:01.675Z,3.25
2023-03-17T16:00:32.287Z,3.02
2023-03-17T16:03:21.220Z,2.80
2023-03-17T16:05:50.948Z,2.80
2023-03-17T16:08:21.782Z,4.28
2023-03-17T16:10:52.883Z,2.85
2023-03-17T16:13:22.550Z,2.62
2023-03-17T16:15:57.721Z,2.75
2023-03-17T16:18:30.443Z,2.85
2023-03-17T16:21:01.735Z,2.85
2023-03-17T16:23:36.519Z,2.47
2023-03-17T16:26:15.528Z,2.17
2023-03-17T16:31:19.525Z,3.35
2023-03-17T16:33:50.696Z,2.90
2023-03-17T16:36:23.338Z,4.03
2023-03-17T16:38:53.936Z,3.27
2023-03-17T16:41:28.068Z,3.67
2023-03-17T16:44:02.422Z,3.15
2023-03-17T16:46:35.935Z,2.97
2023-03-17T16:49:07.185Z,3.52
2023-03-17T16:51:37.063Z,2.75
2023-03-17T16:54:06.477Z,3.43
2023-03-17T16:56:36.134Z,2.80
2023-03-17T16:59:08.422Z,2.90
2023-03-17T17:01:38.015Z,3.23
2023-03-17T17:04:11.308Z,3.15
2023-03-17T17:06:40.906Z,3.25
2023-03-17T17:09:10.328Z,2.67
2023-03-17T17:11:39.877Z,3.55
2023-03-17T17:14:09.583Z,3.45
2023-03-17T17:16:40.962Z,2.87
2023-03-17T17:19:18.677Z,4.70
2023-03-17T17:21:48.117Z,4.72
2023-03-17T17:24:17.606Z,3.40
2023-03-17T17:26:47.453Z,3.25
2023-03-17T17:29:16.878Z,4.95
2023-03-17T17:31:46.529Z,3.35
2023-03-17T17:34:16.388Z,3.58
2023-03-17T17:36:46.038Z,3.10
2023-03-17T17:39:16.777Z,2.57
2023-03-17T17:41:46.208Z,2.35
2023-03-17T17:44:15.876Z,3.02
2023-03-17T17:46:47.419Z,3.15
2023-03-17T17:49:16.888Z,2.92
2023-03-17T17:51:46.405Z,3.08
2023-03-17T17:54:15.998Z,2.87
2023-03-17T17:56:47.189Z,4.75
2023-03-17T17:59:17.506Z,3.42
2023-03-17T18:01:46.921Z,4.03
2023-03-17T18:04:16.574Z,3.70
2023-03-17T18:06:47.756Z,3.58
2023-03-17T18:09:18.256Z,3.03
2023-03-17T18:11:47.761Z,3.25
2023-03-17T18:14:17.318Z,3.90
2023-03-17T18:16:46.770Z,3.55
2023-03-17T18:19:17.452Z,5.22
2023-03-17T18:21:47.636Z,4.28
2023-03-17T18:24:17.870Z,4.73
2023-03-17T18:26:47.317Z,4.30
2023-03-17T18:29:16.785Z,5.25
2023-03-17T18:31:49.687Z,4.20
2023-03-17T18:34:23.586Z,3.83
2023-03-17T18:36:54.021Z,3.65
2023-03-17T18:39:24.021Z,3.85
2023-03-17T18:41:53.639Z,4.55
2023-03-17T18:44:24.980Z,4.35
2023-03-17T18:46:55.091Z,4.62
2023-03-17T18:49:26.310Z,3.30
2023-03-17T18:51:59.211Z,5.00
2023-03-17T18:54:31.850Z,4.97
2023-03-17T18:59:30.573Z,4.55
2023-03-17T19:02:00.228Z,5.17
2023-03-17T19:04:29.759Z,4.08
2023-03-17T19:06:59.191Z,4.87
2023-03-17T19:09:28.708Z,6.40
2023-03-17T19:11:58.453Z,5.18
2023-03-17T19:14:28.023Z,7.05
2023-03-17T19:16:57.560Z,6.17
2023-03-17T19:19:27.978Z,5.63
2023-03-17T19:21:57.743Z,5.08
2023-03-17T19:24:27.752Z,5.20
2023-03-17T19:26:57.448Z,6.55
2023-03-17T19:29:27.815Z,5.35
2023-03-17T19:31:57.714Z,6.33
2023-03-17T19:34:27.959Z,5.20
2023-03-17T19:36:57.446Z,4.83
2023-03-17T19:39:26.960Z,4.77
2023-03-17T19:41:58.246Z,4.65
2023-03-17T19:44:28.554Z,5.03
2023-03-17T19:46:58.152Z,3.65
2023-03-17T19:49:28.291Z,5.47
2023-03-17T19:52:00.078Z,4.47
2023-03-17T19:54:29.587Z,4.15
2023-03-17T19:56:59.300Z,4.10
2023-03-17T19:59:28.707Z,5.03
2023-03-17T20:01:58.502Z,4.40
2023-03-17T20:04:28.681Z,5.35
2023-03-17T20:06:58.213Z,4.40
2023-03-17T20:09:29.827Z,4.15
2023-03-17T20:12:00.075Z,4.10
2023-03-17T20:14:29.878Z,4.58
2023-03-17T20:16:59.378Z,5.35
2023-03-17T20:19:30.284Z,3.85
2023-03-17T20:21:59.816Z,4.75
2023-03-17T20:24:31.118Z,3.52
2023-03-17T20:27:00.726Z,3.98
2023-03-17T20:29:31.633Z,3.22
2023-03-17T20:32:02.535Z,4.55
2023-03-17T20:34:33.150Z,3.60
2023-03-17T20:37:05.334Z,3.20
2023-03-17T20:39:34.862Z,3.90
2023-03-17T20:42:06.086Z,3.80
2023-03-17T20:44:35.587Z,3.62
2023-03-17T20:47:05.090Z,4.72
2023-03-17T20:49:34.572Z,4.28
2023-03-17T20:52:06.355Z,3.62
2023-03-17T20:54:36.497Z,4.03
2023-03-17T20:57:25.264Z,3.58
2023-03-17T20:59:56.629Z,3.50
2023-03-17T21:02:26.205Z,5.15
2023-03-17T21:04:55.766Z,3.05
2023-03-17T21:07:27.565Z,4.55
2023-03-17T21:09:57.024Z,4.03
2023-03-17T21:12:26.428Z,3.98
2023-03-17T21:14:56.158Z,3.92
2023-03-17T21:17:26.287Z,3.67
2023-03-17T21:19:57.765Z,4.65
2023-03-17T21:22:27.320Z,3.27
2023-03-17T21:24:57.805Z,3.55
2023-03-17T21:27:27.388Z,4.53
2023-03-17T21:29:56.837Z,3.45
2023-03-17T21:32:26.378Z,4.10
2023-03-17T21:34:55.859Z,3.90
2023-03-17T21:37:25.363Z,3.75
2023-03-17T21:39:57.742Z,2.87
2023-03-17T21:42:28.376Z,3.72
2023-03-17T21:44:57.881Z,3.70
2023-03-17T21:47:27.372Z,4.05
2023-03-17T21:49:58.388Z,3.40
2023-03-17T21:52:27.879Z,3.17
2023-03-17T21:55:00.324Z,3.87
2023-03-17T21:57:29.826Z,3.22
2023-03-17T21:59:59.282Z,3.55
2023-03-17T22:02:29.230Z,4.12
2023-03-17T22:04:59.601Z,4.17
2023-03-17T22:07:29.758Z,3.90
2023-03-17T22:10:00.822Z,3.95
2023-03-17T22:12:30.373Z,3.65
2023-03-17T22:15:00.158Z,3.87
2023-03-17T22:17:29.765Z,2.98
2023-03-17T22:19:59.290Z,4.05
2023-03-17T22:22:30.287Z,4.15
2023-03-17T22:25:00.345Z,2.98
2023-03-17T22:27:29.844Z,4.12
2023-03-17T22:29:59.262Z,3.72
2023-03-17T22:32:28.909Z,4.30
2023-03-17T22:34:59.489Z,3.98
2023-03-17T22:37:29.068Z,4.47
2023-03-17T22:40:00.666Z,3.77
2023-03-17T22:42:32.452Z,3.83
2023-03-17T22:45:01.987Z,4.33
2023-03-17T22:47:31.489Z,3.47
2023-03-17T22:50:01.558Z,4.40
2023-03-17T22:52:32.269Z,3.95
2023-03-17T22:55:01.766Z,4.28
2023-03-17T22:57:32.225Z,3.45
2023-03-17T23:00:02.137Z,3.10
2023-03-17T23:02:31.550Z,4.83
2023-03-17T23:05:01.305Z,3.67
2023-03-17T23:07:47.813Z,3.70
2023-03-17T23:10:09.721Z,3.35
2023-03-17T23:12:39.133Z,3.47
2023-03-17T23:15:10.735Z,3.85
2023-03-17T23:17:40.141Z,3.50
2023-03-17T23:20:12.014Z,3.62
2023-03-17T23:22:41.588Z,3.80
2023-03-17T23:25:13.175Z,3.37
2023-03-17T23:27:43.273Z,3.47
2023-03-17T23:30:14.546Z,3.65
2023-03-17T23:32:45.366Z,4.10
2023-03-17T23:35:16.085Z,3.42
2023-03-17T23:37:46.203Z,3.45
2023-03-17T23:40:17.521Z,3.10
2023-03-17T23:42:53.186Z,3.62
2023-03-17T23:45:24.507Z,3.52
2023-03-17T23:47:55.935Z,3.35
2023-03-17T23:50:26.633Z,3.37
2023-03-17T23:52:56.121Z,3.77
2023-03-17T23:55:26.324Z,2.97
2023-03-17T23:57:56.271Z,3.77
